sensor_id;sensor_type;location;lat;lon;timestamp;temperature;humidity
19340;HTU21D;9804;52.350;6.684;2023-07-09T00:02:01;24.82;-6.00
19340;HTU21D;9804;52.350;6.684;2023-07-09T00:04:26;24.75;-6.00
19340;HTU21D;9804;52.350;6.684;2023-07-09T00:06:54;24.57;-6.00
19340;HTU21D;9804;52.350;6.684;2023-07-09T00:09:21;24.40;-6.00
19340;HTU21D;9804;52.350;6.684;2023-07-09T00:11:47;24.36;-6.00
19340;HTU21D;9804;52.350;6.684;2023-07-09T00:14:14;24.23;-6.00
19340;HTU21D;9804;52.350;6.684;2023-07-09T00:16:42;24.08;-6.00
19340;HTU21D;9804;52.350;6.684;2023-07-09T00:19:17;24.19;-6.00
19340;HTU21D;9804;52.350;6.684;2023-07-09T00:21:44;24.11;-6.00
19340;HTU21D;9804;52.350;6.684;2023-07-09T00:24:13;24.12;-6.00
19340;HTU21D;9804;52.350;6.684;2023-07-09T00:26:39;24.14;-6.00
19340;HTU21D;9804;52.350;6.684;2023-07-09T00:29:10;24.16;-6.00
19340;HTU21D;9804;52.350;6.684;2023-07-09T00:31:36;24.12;-6.00
19340;HTU21D;9804;52.350;6.684;2023-07-09T00:34:04;23.87;-6.00
19340;HTU21D;9804;52.350;6.684;2023-07-09T00:36:30;23.88;-6.00
19340;HTU21D;9804;52.350;6.684;2023-07-09T00:39:00;23.90;-6.00
19340;HTU21D;9804;52.350;6.684;2023-07-09T00:41:33;23.95;-6.00
19340;HTU21D;9804;52.350;6.684;2023-07-09T00:50:50;23.76;-6.00
19340;HTU21D;9804;52.350;6.684;2023-07-09T00:53:20;23.80;-6.00
19340;HTU21D;9804;52.350;6.684;2023-07-09T00:56:07;23.85;-6.00
19340;HTU21D;9804;52.350;6.684;2023-07-09T00:58:35;23.65;-6.00
19340;HTU21D;9804;52.350;6.684;2023-07-09T01:01:04;23.60;-6.00
19340;HTU21D;9804;52.350;6.684;2023-07-09T01:03:35;23.64;-6.00
19340;HTU21D;9804;52.350;6.684;2023-07-09T01:06:02;23.62;-6.00
19340;HTU21D;9804;52.350;6.684;2023-07-09T01:08:32;23.60;-6.00
19340;HTU21D;9804;52.350;6.684;2023-07-09T01:10:58;23.47;-6.00
19340;HTU21D;9804;52.350;6.684;2023-07-09T01:13:25;23.57;-6.00
19340;HTU21D;9804;52.350;6.684;2023-07-09T01:15:53;23.50;-6.00
19340;HTU21D;9804;52.350;6.684;2023-07-09T01:18:19;23.55;-6.00
19340;HTU21D;9804;52.350;6.684;2023-07-09T01:20:44;23.41;-6.00
19340;HTU21D;9804;52.350;6.684;2023-07-09T01:23:10;23.44;-6.00
19340;HTU21D;9804;52.350;6.684;2023-07-09T01:25:43;23.50;-6.00
19340;HTU21D;9804;52.350;6.684;2023-07-09T01:28:09;23.61;-6.00
19340;HTU21D;9804;52.350;6.684;2023-07-09T01:30:38;23.70;-6.00
19340;HTU21D;9804;52.350;6.684;2023-07-09T01:33:04;23.67;-6.00
19340;HTU21D;9804;52.350;6.684;2023-07-09T01:35:34;23.58;-6.00
19340;HTU21D;9804;52.350;6.684;2023-07-09T01:37:59;23.50;-6.00
19340;HTU21D;9804;52.350;6.684;2023-07-09T01:40:26;23.28;-6.00
19340;HTU21D;9804;52.350;6.684;2023-07-09T01:42:53;23.30;-6.00
19340;HTU21D;9804;52.350;6.684;2023-07-09T01:45:21;23.29;-6.00
19340;HTU21D;9804;52.350;6.684;2023-07-09T01:47:46;23.18;-6.00
19340;HTU21D;9804;52.350;6.684;2023-07-09T01:50:12;23.08;-6.00
19340;HTU21D;9804;52.350;6.684;2023-07-09T01:52:40;23.03;-6.00
19340;HTU21D;9804;52.350;6.684;2023-07-09T01:55:09;22.96;-6.00
19340;HTU21D;9804;52.350;6.684;2023-07-09T01:57:35;22.95;-6.00
19340;HTU21D;9804;52.350;6.684;2023-07-09T02:00:04;22.99;-6.00
19340;HTU21D;9804;52.350;6.684;2023-07-09T02:02:31;22.98;-6.00
19340;HTU21D;9804;52.350;6.684;2023-07-09T02:04:58;22.94;-6.00
19340;HTU21D;9804;52.350;6.684;2023-07-09T02:07:24;22.93;-6.00
19340;HTU21D;9804;52.350;6.684;2023-07-09T02:09:50;22.75;-6.00
19340;HTU21D;9804;52.350;6.684;2023-07-09T02:12:17;22.79;-6.00
19340;HTU21D;9804;52.350;6.684;2023-07-09T02:14:44;22.84;-6.00
19340;HTU21D;9804;52.350;6.684;2023-07-09T02:17:11;22.87;-6.00
19340;HTU21D;9804;52.350;6.684;2023-07-09T02:19:37;22.85;-6.00
19340;HTU21D;9804;52.350;6.684;2023-07-09T02:22:03;22.88;-6.00
19340;HTU21D;9804;52.350;6.684;2023-07-09T02:24:28;22.86;-6.00
19340;HTU21D;9804;52.350;6.684;2023-07-09T02:26:55;22.81;-6.00
19340;HTU21D;9804;52.350;6.684;2023-07-09T02:29:21;22.71;-6.00
19340;HTU21D;9804;52.350;6.684;2023-07-09T02:31:49;22.64;-6.00
19340;HTU21D;9804;52.350;6.684;2023-07-09T02:34:15;22.70;-6.00
19340;HTU21D;9804;52.350;6.684;2023-07-09T02:36:41;22.67;-6.00
19340;HTU21D;9804;52.350;6.684;2023-07-09T02:39:09;22.75;-6.00
19340;HTU21D;9804;52.350;6.684;2023-07-09T02:41:35;22.71;-6.00
19340;HTU21D;9804;52.350;6.684;2023-07-09T02:44:00;22.65;-6.00
19340;HTU21D;9804;52.350;6.684;2023-07-09T02:46:26;22.55;-6.00
19340;HTU21D;9804;52.350;6.684;2023-07-09T02:48:51;22.55;-6.00
19340;HTU21D;9804;52.350;6.684;2023-07-09T02:51:16;22.56;-6.00
19340;HTU21D;9804;52.350;6.684;2023-07-09T02:53:42;22.48;-6.00
19340;HTU21D;9804;52.350;6.684;2023-07-09T02:56:07;22.47;-6.00
19340;HTU21D;9804;52.350;6.684;2023-07-09T02:58:32;22.50;-6.00
19340;HTU21D;9804;52.350;6.684;2023-07-09T03:00:58;22.48;-6.00
19340;HTU21D;9804;52.350;6.684;2023-07-09T03:03:23;22.50;-6.00
19340;HTU21D;9804;52.350;6.684;2023-07-09T03:05:48;22.46;-6.00
19340;HTU21D;9804;52.350;6.684;2023-07-09T03:08:14;22.48;-6.00
19340;HTU21D;9804;52.350;6.684;2023-07-09T03:10:40;22.44;-6.00
19340;HTU21D;9804;52.350;6.684;2023-07-09T03:13:06;22.36;-6.00
19340;HTU21D;9804;52.350;6.684;2023-07-09T03:15:31;22.46;-6.00
19340;HTU21D;9804;52.350;6.684;2023-07-09T03:17:57;22.49;-6.00
19340;HTU21D;9804;52.350;6.684;2023-07-09T03:20:22;22.43;-6.00
19340;HTU21D;9804;52.350;6.684;2023-07-09T03:22:48;22.47;-6.00
19340;HTU21D;9804;52.350;6.684;2023-07-09T03:25:13;22.47;-6.00
19340;HTU21D;9804;52.350;6.684;2023-07-09T03:27:39;22.49;-6.00
19340;HTU21D;9804;52.350;6.684;2023-07-09T03:30:05;22.52;-6.00
19340;HTU21D;9804;52.350;6.684;2023-07-09T03:32:30;22.64;-6.00
19340;HTU21D;9804;52.350;6.684;2023-07-09T03:34:56;22.58;-6.00
19340;HTU21D;9804;52.350;6.684;2023-07-09T03:37:21;22.66;-6.00
19340;HTU21D;9804;52.350;6.684;2023-07-09T03:39:46;22.70;-6.00
19340;HTU21D;9804;52.350;6.684;2023-07-09T03:42:12;22.75;-6.00
19340;HTU21D;9804;52.350;6.684;2023-07-09T03:44:37;22.76;-6.00
19340;HTU21D;9804;52.350;6.684;2023-07-09T03:47:03;22.81;-6.00
19340;HTU21D;9804;52.350;6.684;2023-07-09T03:49:28;22.86;-6.00
19340;HTU21D;9804;52.350;6.684;2023-07-09T03:51:53;22.83;-6.00
19340;HTU21D;9804;52.350;6.684;2023-07-09T03:54:19;22.92;-6.00
19340;HTU21D;9804;52.350;6.684;2023-07-09T03:56:44;22.98;-6.00
19340;HTU21D;9804;52.350;6.684;2023-07-09T03:59:10;22.98;-6.00
19340;HTU21D;9804;52.350;6.684;2023-07-09T04:01:35;22.98;-6.00
19340;HTU21D;9804;52.350;6.684;2023-07-09T04:04:01;22.99;-6.00
19340;HTU21D;9804;52.350;6.684;2023-07-09T04:06:26;23.10;-6.00
19340;HTU21D;9804;52.350;6.684;2023-07-09T04:08:52;23.17;-6.00
19340;HTU21D;9804;52.350;6.684;2023-07-09T04:11:17;23.17;-6.00
19340;HTU21D;9804;52.350;6.684;2023-07-09T04:13:42;23.14;-6.00
19340;HTU21D;9804;52.350;6.684;2023-07-09T04:16:09;23.11;-6.00
19340;HTU21D;9804;52.350;6.684;2023-07-09T04:18:35;23.17;-6.00
19340;HTU21D;9804;52.350;6.684;2023-07-09T04:21:01;23.23;-6.00
19340;HTU21D;9804;52.350;6.684;2023-07-09T04:23:27;23.18;-6.00
19340;HTU21D;9804;52.350;6.684;2023-07-09T04:25:52;23.28;-6.00
19340;HTU21D;9804;52.350;6.684;2023-07-09T04:28:18;23.38;-6.00
19340;HTU21D;9804;52.350;6.684;2023-07-09T04:30:50;23.67;-6.00
19340;HTU21D;9804;52.350;6.684;2023-07-09T04:33:17;24.00;-6.00
19340;HTU21D;9804;52.350;6.684;2023-07-09T04:35:44;23.87;-6.00
19340;HTU21D;9804;52.350;6.684;2023-07-09T04:38:10;24.16;-6.00
19340;HTU21D;9804;52.350;6.684;2023-07-09T04:40:35;24.25;-6.00
19340;HTU21D;9804;52.350;6.684;2023-07-09T04:43:01;24.35;-6.00
19340;HTU21D;9804;52.350;6.684;2023-07-09T04:45:26;24.48;-6.00
19340;HTU21D;9804;52.350;6.684;2023-07-09T04:47:51;24.57;-6.00
19340;HTU21D;9804;52.350;6.684;2023-07-09T04:50:18;24.79;-6.00
19340;HTU21D;9804;52.350;6.684;2023-07-09T04:52:44;24.57;-6.00
19340;HTU21D;9804;52.350;6.684;2023-07-09T04:55:09;24.49;-6.00
19340;HTU21D;9804;52.350;6.684;2023-07-09T04:57:35;24.44;-6.00
19340;HTU21D;9804;52.350;6.684;2023-07-09T05:00:01;24.44;-6.00
19340;HTU21D;9804;52.350;6.684;2023-07-09T05:02:26;24.66;-6.00
19340;HTU21D;9804;52.350;6.684;2023-07-09T05:04:52;24.80;-6.00
19340;HTU21D;9804;52.350;6.684;2023-07-09T05:07:18;24.92;-6.00
19340;HTU21D;9804;52.350;6.684;2023-07-09T05:09:43;24.93;-6.00
19340;HTU21D;9804;52.350;6.684;2023-07-09T05:12:09;25.40;-6.00
19340;HTU21D;9804;52.350;6.684;2023-07-09T05:14:35;25.40;-6.00
19340;HTU21D;9804;52.350;6.684;2023-07-09T05:17:00;25.44;-6.00
19340;HTU21D;9804;52.350;6.684;2023-07-09T05:19:26;25.46;-6.00
19340;HTU21D;9804;52.350;6.684;2023-07-09T05:21:51;25.61;-6.00
19340;HTU21D;9804;52.350;6.684;2023-07-09T05:24:16;25.75;-6.00
19340;HTU21D;9804;52.350;6.684;2023-07-09T05:26:42;25.83;-6.00
19340;HTU21D;9804;52.350;6.684;2023-07-09T05:29:07;25.80;-6.00
19340;HTU21D;9804;52.350;6.684;2023-07-09T05:31:33;25.98;-6.00
19340;HTU21D;9804;52.350;6.684;2023-07-09T05:33:59;25.98;-6.00
19340;HTU21D;9804;52.350;6.684;2023-07-09T05:36:26;25.99;-6.00
19340;HTU21D;9804;52.350;6.684;2023-07-09T05:38:52;26.03;-6.00
19340;HTU21D;9804;52.350;6.684;2023-07-09T05:41:17;26.11;-6.00
19340;HTU21D;9804;52.350;6.684;2023-07-09T05:43:44;26.05;-6.00
19340;HTU21D;9804;52.350;6.684;2023-07-09T05:46:10;26.07;-6.00
19340;HTU21D;9804;52.350;6.684;2023-07-09T05:48:36;26.23;-6.00
19340;HTU21D;9804;52.350;6.684;2023-07-09T05:51:01;26.56;-6.00
19340;HTU21D;9804;52.350;6.684;2023-07-09T05:53:26;26.67;-6.00
19340;HTU21D;9804;52.350;6.684;2023-07-09T05:55:55;26.76;-6.00
19340;HTU21D;9804;52.350;6.684;2023-07-09T05:58:22;26.92;-6.00
19340;HTU21D;9804;52.350;6.684;2023-07-09T06:00:52;26.98;-6.00
19340;HTU21D;9804;52.350;6.684;2023-07-09T06:03:22;26.95;-6.00
19340;HTU21D;9804;52.350;6.684;2023-07-09T06:05:48;27.17;-6.00
19340;HTU21D;9804;52.350;6.684;2023-07-09T06:08:18;27.24;-6.00
19340;HTU21D;9804;52.350;6.684;2023-07-09T06:10:54;27.22;-6.00
19340;HTU21D;9804;52.350;6.684;2023-07-09T06:13:20;27.38;-6.00
19340;HTU21D;9804;52.350;6.684;2023-07-09T06:15:49;27.55;-6.00
19340;HTU21D;9804;52.350;6.684;2023-07-09T06:18:15;27.81;-6.00
19340;HTU21D;9804;52.350;6.684;2023-07-09T06:20:40;27.68;-6.00
19340;HTU21D;9804;52.350;6.684;2023-07-09T06:23:06;27.80;-6.00
19340;HTU21D;9804;52.350;6.684;2023-07-09T06:25:32;27.83;-6.00
19340;HTU21D;9804;52.350;6.684;2023-07-09T06:27:57;27.86;-6.00
19340;HTU21D;9804;52.350;6.684;2023-07-09T06:30:23;27.95;-6.00
19340;HTU21D;9804;52.350;6.684;2023-07-09T06:32:48;27.88;-6.00
19340;HTU21D;9804;52.350;6.684;2023-07-09T06:35:14;27.84;-6.00
19340;HTU21D;9804;52.350;6.684;2023-07-09T06:37:39;28.14;-6.00
19340;HTU21D;9804;52.350;6.684;2023-07-09T06:40:05;28.32;-6.00
19340;HTU21D;9804;52.350;6.684;2023-07-09T06:42:35;28.30;-6.00
19340;HTU21D;9804;52.350;6.684;2023-07-09T06:45:01;28.45;-6.00
19340;HTU21D;9804;52.350;6.684;2023-07-09T06:47:29;28.27;-6.00
19340;HTU21D;9804;52.350;6.684;2023-07-09T06:49:55;28.61;-6.00
19340;HTU21D;9804;52.350;6.684;2023-07-09T06:52:20;28.77;-6.00
19340;HTU21D;9804;52.350;6.684;2023-07-09T06:54:45;28.85;-6.00
19340;HTU21D;9804;52.350;6.684;2023-07-09T06:57:11;29.11;-6.00
19340;HTU21D;9804;52.350;6.684;2023-07-09T06:59:36;29.18;-6.00
19340;HTU21D;9804;52.350;6.684;2023-07-09T07:02:03;29.27;-6.00
19340;HTU21D;9804;52.350;6.684;2023-07-09T07:04:28;29.34;-6.00
19340;HTU21D;9804;52.350;6.684;2023-07-09T07:06:54;29.35;-6.00
19340;HTU21D;9804;52.350;6.684;2023-07-09T07:09:22;29.60;-6.00
19340;HTU21D;9804;52.350;6.684;2023-07-09T07:11:49;29.56;-6.00
19340;HTU21D;9804;52.350;6.684;2023-07-09T07:14:14;29.50;-6.00
19340;HTU21D;9804;52.350;6.684;2023-07-09T07:16:39;29.63;-6.00
19340;HTU21D;9804;52.350;6.684;2023-07-09T07:19:05;29.53;-6.00
19340;HTU21D;9804;52.350;6.684;2023-07-09T07:21:31;29.70;-6.00
19340;HTU21D;9804;52.350;6.684;2023-07-09T07:23:56;30.01;-6.00
19340;HTU21D;9804;52.350;6.684;2023-07-09T07:26:21;30.06;-6.00
19340;HTU21D;9804;52.350;6.684;2023-07-09T07:28:47;30.47;-6.00
19340;HTU21D;9804;52.350;6.684;2023-07-09T07:31:13;30.21;-6.00
19340;HTU21D;9804;52.350;6.684;2023-07-09T07:33:39;30.16;-6.00
19340;HTU21D;9804;52.350;6.684;2023-07-09T07:36:06;30.28;-6.00
19340;HTU21D;9804;52.350;6.684;2023-07-09T07:38:31;30.71;-6.00
19340;HTU21D;9804;52.350;6.684;2023-07-09T07:40:57;30.39;-6.00
19340;HTU21D;9804;52.350;6.684;2023-07-09T07:43:22;30.36;-6.00
19340;HTU21D;9804;52.350;6.684;2023-07-09T07:45:47;30.48;-6.00
19340;HTU21D;9804;52.350;6.684;2023-07-09T07:48:13;30.48;-6.00
19340;HTU21D;9804;52.350;6.684;2023-07-09T07:50:39;30.59;-6.00
19340;HTU21D;9804;52.350;6.684;2023-07-09T07:53:06;30.67;-6.00
19340;HTU21D;9804;52.350;6.684;2023-07-09T07:55:33;30.79;-6.00
19340;HTU21D;9804;52.350;6.684;2023-07-09T07:57:58;30.85;-6.00
19340;HTU21D;9804;52.350;6.684;2023-07-09T08:00:25;30.95;-6.00
19340;HTU21D;9804;52.350;6.684;2023-07-09T08:02:51;30.94;-6.00
19340;HTU21D;9804;52.350;6.684;2023-07-09T08:05:16;31.09;-6.00
19340;HTU21D;9804;52.350;6.684;2023-07-09T08:07:42;30.95;-6.00
19340;HTU21D;9804;52.350;6.684;2023-07-09T08:10:07;30.96;-6.00
19340;HTU21D;9804;52.350;6.684;2023-07-09T08:12:33;31.24;-6.00
19340;HTU21D;9804;52.350;6.684;2023-07-09T08:14:58;31.44;-6.00
19340;HTU21D;9804;52.350;6.684;2023-07-09T08:17:24;31.45;-6.00
19340;HTU21D;9804;52.350;6.684;2023-07-09T08:19:51;31.66;-6.00
19340;HTU21D;9804;52.350;6.684;2023-07-09T08:22:18;32.04;-6.00
19340;HTU21D;9804;52.350;6.684;2023-07-09T08:24:46;31.98;-6.00
19340;HTU21D;9804;52.350;6.684;2023-07-09T08:27:11;32.08;-6.00
19340;HTU21D;9804;52.350;6.684;2023-07-09T08:29:37;32.38;-6.00
19340;HTU21D;9804;52.350;6.684;2023-07-09T08:32:03;32.10;-6.00
19340;HTU21D;9804;52.350;6.684;2023-07-09T08:34:29;32.00;-6.00
19340;HTU21D;9804;52.350;6.684;2023-07-09T08:36:54;32.24;-6.00
19340;HTU21D;9804;52.350;6.684;2023-07-09T08:39:20;32.13;-6.00
19340;HTU21D;9804;52.350;6.684;2023-07-09T08:41:50;32.50;-6.00
19340;HTU21D;9804;52.350;6.684;2023-07-09T08:47:23;32.71;-6.00
19340;HTU21D;9804;52.350;6.684;2023-07-09T08:50:01;33.14;-6.00
19340;HTU21D;9804;52.350;6.684;2023-07-09T08:52:34;33.08;-6.00
19340;HTU21D;9804;52.350;6.684;2023-07-09T08:55:06;33.23;-6.00
19340;HTU21D;9804;52.350;6.684;2023-07-09T08:57:38;33.30;-6.00
19340;HTU21D;9804;52.350;6.684;2023-07-09T09:02:48;33.30;-6.00
19340;HTU21D;9804;52.350;6.684;2023-07-09T09:05:18;33.36;-6.00
19340;HTU21D;9804;52.350;6.684;2023-07-09T09:07:45;33.28;-6.00
19340;HTU21D;9804;52.350;6.684;2023-07-09T09:10:16;33.55;-6.00
19340;HTU21D;9804;52.350;6.684;2023-07-09T09:12:56;33.62;-6.00
19340;HTU21D;9804;52.350;6.684;2023-07-09T09:15:25;33.59;-6.00
19340;HTU21D;9804;52.350;6.684;2023-07-09T09:17:54;33.65;-6.00
19340;HTU21D;9804;52.350;6.684;2023-07-09T09:20:22;33.73;-6.00
19340;HTU21D;9804;52.350;6.684;2023-07-09T09:22:59;34.07;-6.00
19340;HTU21D;9804;52.350;6.684;2023-07-09T09:25:31;34.14;-6.00
19340;HTU21D;9804;52.350;6.684;2023-07-09T09:28:00;34.05;-6.00
19340;HTU21D;9804;52.350;6.684;2023-07-09T09:30:28;34.37;-6.00
19340;HTU21D;9804;52.350;6.684;2023-07-09T09:32:57;34.41;-6.00
19340;HTU21D;9804;52.350;6.684;2023-07-09T09:35:37;34.35;-6.00
19340;HTU21D;9804;52.350;6.684;2023-07-09T09:38:10;34.46;-6.00
19340;HTU21D;9804;52.350;6.684;2023-07-09T09:40:36;34.51;-6.00
19340;HTU21D;9804;52.350;6.684;2023-07-09T09:43:04;34.65;-6.00
19340;HTU21D;9804;52.350;6.684;2023-07-09T09:45:38;34.79;-6.00
19340;HTU21D;9804;52.350;6.684;2023-07-09T09:48:14;34.46;-6.00
19340;HTU21D;9804;52.350;6.684;2023-07-09T09:50:40;34.61;-6.00
19340;HTU21D;9804;52.350;6.684;2023-07-09T09:53:08;34.80;-6.00
19340;HTU21D;9804;52.350;6.684;2023-07-09T09:55:34;35.07;-6.00
19340;HTU21D;9804;52.350;6.684;2023-07-09T09:58:00;34.78;-6.00
19340;HTU21D;9804;52.350;6.684;2023-07-09T10:00:29;35.06;-6.00
19340;HTU21D;9804;52.350;6.684;2023-07-09T10:03:03;35.14;-6.00
19340;HTU21D;9804;52.350;6.684;2023-07-09T10:05:57;35.79;-6.00
19340;HTU21D;9804;52.350;6.684;2023-07-09T10:08:48;35.78;-6.00
19340;HTU21D;9804;52.350;6.684;2023-07-09T10:14:36;35.09;-6.00
19340;HTU21D;9804;52.350;6.684;2023-07-09T10:22:39;35.80;-6.00
19340;HTU21D;9804;52.350;6.684;2023-07-09T10:25:28;35.85;-6.00
19340;HTU21D;9804;52.350;6.684;2023-07-09T10:31:00;36.17;-6.00
19340;HTU21D;9804;52.350;6.684;2023-07-09T10:37:00;36.00;-6.00
19340;HTU21D;9804;52.350;6.684;2023-07-09T10:42:03;36.29;-6.00
19340;HTU21D;9804;52.350;6.684;2023-07-09T10:44:36;36.44;-6.00
19340;HTU21D;9804;52.350;6.684;2023-07-09T10:47:09;36.46;-6.00
19340;HTU21D;9804;52.350;6.684;2023-07-09T10:49:39;36.36;-6.00
19340;HTU21D;9804;52.350;6.684;2023-07-09T10:52:25;36.49;-6.00
19340;HTU21D;9804;52.350;6.684;2023-07-09T10:55:18;36.72;-6.00
19340;HTU21D;9804;52.350;6.684;2023-07-09T10:57:52;36.38;-6.00
19340;HTU21D;9804;52.350;6.684;2023-07-09T11:00:20;36.57;-6.00
19340;HTU21D;9804;52.350;6.684;2023-07-09T11:02:50;36.85;-6.00
19340;HTU21D;9804;52.350;6.684;2023-07-09T11:05:19;36.67;-6.00
19340;HTU21D;9804;52.350;6.684;2023-07-09T11:07:59;36.77;-6.00
19340;HTU21D;9804;52.350;6.684;2023-07-09T11:10:31;36.97;-6.00
19340;HTU21D;9804;52.350;6.684;2023-07-09T11:13:04;36.81;-6.00
19340;HTU21D;9804;52.350;6.684;2023-07-09T11:15:36;37.15;-6.00
19340;HTU21D;9804;52.350;6.684;2023-07-09T11:18:06;36.98;-6.00
19340;HTU21D;9804;52.350;6.684;2023-07-09T11:20:40;36.99;-6.00
19340;HTU21D;9804;52.350;6.684;2023-07-09T11:23:17;37.10;-6.00
19340;HTU21D;9804;52.350;6.684;2023-07-09T11:25:45;37.47;-6.00
19340;HTU21D;9804;52.350;6.684;2023-07-09T11:28:10;37.45;-6.00
19340;HTU21D;9804;52.350;6.684;2023-07-09T11:30:54;37.45;-6.00
19340;HTU21D;9804;52.350;6.684;2023-07-09T11:33:29;37.43;-6.00
19340;HTU21D;9804;52.350;6.684;2023-07-09T11:36:12;37.05;-6.00
19340;HTU21D;9804;52.350;6.684;2023-07-09T11:38:44;37.37;-6.00
19340;HTU21D;9804;52.350;6.684;2023-07-09T11:41:40;37.29;-6.00
19340;HTU21D;9804;52.350;6.684;2023-07-09T11:44:18;36.90;-6.00
19340;HTU21D;9804;52.350;6.684;2023-07-09T11:47:19;37.52;-6.00
19340;HTU21D;9804;52.350;6.684;2023-07-09T11:55:45;38.00;-6.00
19340;HTU21D;9804;52.350;6.684;2023-07-09T11:58:13;38.05;-6.00
19340;HTU21D;9804;52.350;6.684;2023-07-09T12:00:44;38.10;-6.00
19340;HTU21D;9804;52.350;6.684;2023-07-09T12:03:16;37.69;-6.00
19340;HTU21D;9804;52.350;6.684;2023-07-09T12:05:48;38.14;-6.00
19340;HTU21D;9804;52.350;6.684;2023-07-09T12:08:15;38.36;-6.00
19340;HTU21D;9804;52.350;6.684;2023-07-09T12:10:41;38.63;-6.00
19340;HTU21D;9804;52.350;6.684;2023-07-09T12:13:09;38.91;-6.00
19340;HTU21D;9804;52.350;6.684;2023-07-09T12:15:35;38.49;-6.00
19340;HTU21D;9804;52.350;6.684;2023-07-09T12:18:10;38.95;-6.00
19340;HTU21D;9804;52.350;6.684;2023-07-09T12:20:36;39.20;-6.00
19340;HTU21D;9804;52.350;6.684;2023-07-09T12:23:29;39.41;-6.00
19340;HTU21D;9804;52.350;6.684;2023-07-09T12:25:55;39.47;-6.00
19340;HTU21D;9804;52.350;6.684;2023-07-09T12:28:25;39.17;-6.00
19340;HTU21D;9804;52.350;6.684;2023-07-09T12:30:52;39.20;-6.00
19340;HTU21D;9804;52.350;6.684;2023-07-09T12:33:19;38.46;-6.00
19340;HTU21D;9804;52.350;6.684;2023-07-09T12:35:46;38.80;-6.00
19340;HTU21D;9804;52.350;6.684;2023-07-09T12:38:23;38.99;-6.00
19340;HTU21D;9804;52.350;6.684;2023-07-09T12:40:50;38.69;-6.00
19340;HTU21D;9804;52.350;6.684;2023-07-09T12:43:28;38.46;-6.00
19340;HTU21D;9804;52.350;6.684;2023-07-09T12:45:56;38.30;-6.00
19340;HTU21D;9804;52.350;6.684;2023-07-09T12:48:24;38.62;-6.00
19340;HTU21D;9804;52.350;6.684;2023-07-09T12:50:51;38.71;-6.00
19340;HTU21D;9804;52.350;6.684;2023-07-09T12:53:20;38.99;-6.00
19340;HTU21D;9804;52.350;6.684;2023-07-09T12:55:49;38.95;-6.00
19340;HTU21D;9804;52.350;6.684;2023-07-09T12:58:38;39.09;-6.00
19340;HTU21D;9804;52.350;6.684;2023-07-09T13:01:13;39.19;-6.00
19340;HTU21D;9804;52.350;6.684;2023-07-09T13:03:39;39.50;-6.00
19340;HTU21D;9804;52.350;6.684;2023-07-09T13:06:42;39.40;-6.00
19340;HTU21D;9804;52.350;6.684;2023-07-09T13:09:20;39.25;-6.00
19340;HTU21D;9804;52.350;6.684;2023-07-09T13:11:49;39.17;-6.00
19340;HTU21D;9804;52.350;6.684;2023-07-09T13:14:22;39.04;-6.00
19340;HTU21D;9804;52.350;6.684;2023-07-09T13:16:49;39.05;-6.00
19340;HTU21D;9804;52.350;6.684;2023-07-09T13:19:15;39.21;-6.00
19340;HTU21D;9804;52.350;6.684;2023-07-09T13:21:41;38.94;-6.00
19340;HTU21D;9804;52.350;6.684;2023-07-09T13:24:17;38.97;-6.00
19340;HTU21D;9804;52.350;6.684;2023-07-09T13:26:43;38.95;-6.00
19340;HTU21D;9804;52.350;6.684;2023-07-09T13:29:17;38.95;-6.00
19340;HTU21D;9804;52.350;6.684;2023-07-09T13:31:44;38.52;-6.00
19340;HTU21D;9804;52.350;6.684;2023-07-09T13:34:27;38.37;-6.00
19340;HTU21D;9804;52.350;6.684;2023-07-09T13:36:54;38.52;-6.00
19340;HTU21D;9804;52.350;6.684;2023-07-09T13:39:22;38.30;-6.00
19340;HTU21D;9804;52.350;6.684;2023-07-09T13:41:49;38.30;-6.00
19340;HTU21D;9804;52.350;6.684;2023-07-09T13:44:24;38.59;-6.00
19340;HTU21D;9804;52.350;6.684;2023-07-09T13:46:51;38.08;-6.00
19340;HTU21D;9804;52.350;6.684;2023-07-09T13:49:22;37.95;-6.00
19340;HTU21D;9804;52.350;6.684;2023-07-09T13:51:51;38.03;-6.00
19340;HTU21D;9804;52.350;6.684;2023-07-09T13:54:23;38.05;-6.00
19340;HTU21D;9804;52.350;6.684;2023-07-09T13:56:49;37.95;-6.00
19340;HTU21D;9804;52.350;6.684;2023-07-09T13:59:18;37.51;-6.00
19340;HTU21D;9804;52.350;6.684;2023-07-09T14:01:44;38.07;-6.00
19340;HTU21D;9804;52.350;6.684;2023-07-09T14:04:13;38.02;-6.00
19340;HTU21D;9804;52.350;6.684;2023-07-09T14:06:39;38.05;-6.00
19340;HTU21D;9804;52.350;6.684;2023-07-09T14:09:06;38.09;-6.00
19340;HTU21D;9804;52.350;6.684;2023-07-09T14:11:32;38.23;-6.00
19340;HTU21D;9804;52.350;6.684;2023-07-09T14:13:57;38.18;-6.00
19340;HTU21D;9804;52.350;6.684;2023-07-09T14:16:23;38.14;-6.00
19340;HTU21D;9804;52.350;6.684;2023-07-09T14:18:49;38.51;-6.00
19340;HTU21D;9804;52.350;6.684;2023-07-09T14:21:18;38.49;-6.00
19340;HTU21D;9804;52.350;6.684;2023-07-09T14:23:46;38.38;-6.00
19340;HTU21D;9804;52.350;6.684;2023-07-09T14:26:11;37.65;-6.00
19340;HTU21D;9804;52.350;6.684;2023-07-09T14:28:36;37.25;-6.00
19340;HTU21D;9804;52.350;6.684;2023-07-09T14:31:04;37.10;-6.00
19340;HTU21D;9804;52.350;6.684;2023-07-09T14:33:38;37.26;-6.00
19340;HTU21D;9804;52.350;6.684;2023-07-09T14:36:04;37.25;-6.00
19340;HTU21D;9804;52.350;6.684;2023-07-09T14:38:29;37.72;-6.00
19340;HTU21D;9804;52.350;6.684;2023-07-09T14:40:58;37.63;-6.00
19340;HTU21D;9804;52.350;6.684;2023-07-09T14:43:28;37.25;-6.00
19340;HTU21D;9804;52.350;6.684;2023-07-09T14:45:53;37.38;-6.00
19340;HTU21D;9804;52.350;6.684;2023-07-09T14:48:20;36.82;-6.00
19340;HTU21D;9804;52.350;6.684;2023-07-09T14:50:46;36.86;-6.00
19340;HTU21D;9804;52.350;6.684;2023-07-09T14:53:20;36.98;-6.00
19340;HTU21D;9804;52.350;6.684;2023-07-09T14:55:46;36.75;-6.00
19340;HTU21D;9804;52.350;6.684;2023-07-09T14:58:16;36.72;-6.00
19340;HTU21D;9804;52.350;6.684;2023-07-09T15:00:43;36.57;-6.00
19340;HTU21D;9804;52.350;6.684;2023-07-09T15:03:11;36.81;-6.00
19340;HTU21D;9804;52.350;6.684;2023-07-09T15:05:37;36.87;-6.00
19340;HTU21D;9804;52.350;6.684;2023-07-09T15:08:15;36.48;-6.00
19340;HTU21D;9804;52.350;6.684;2023-07-09T15:10:41;36.15;-6.00
19340;HTU21D;9804;52.350;6.684;2023-07-09T15:13:31;35.97;-6.00
19340;HTU21D;9804;52.350;6.684;2023-07-09T15:15:58;35.74;-6.00
19340;HTU21D;9804;52.350;6.684;2023-07-09T15:18:24;35.33;-6.00
19340;HTU21D;9804;52.350;6.684;2023-07-09T15:20:53;34.06;-6.00
19340;HTU21D;9804;52.350;6.684;2023-07-09T15:23:20;33.62;-6.00
19340;HTU21D;9804;52.350;6.684;2023-07-09T15:25:48;32.59;-6.00
19340;HTU21D;9804;52.350;6.684;2023-07-09T15:28:14;32.83;-6.00
19340;HTU21D;9804;52.350;6.684;2023-07-09T15:30:40;32.88;-6.00
19340;HTU21D;9804;52.350;6.684;2023-07-09T15:33:12;32.30;-6.00
19340;HTU21D;9804;52.350;6.684;2023-07-09T15:35:39;32.03;-6.00
19340;HTU21D;9804;52.350;6.684;2023-07-09T15:38:20;31.52;-6.00
19340;HTU21D;9804;52.350;6.684;2023-07-09T15:40:47;30.60;-6.00
19340;HTU21D;9804;52.350;6.684;2023-07-09T15:43:14;29.18;-6.00
19340;HTU21D;9804;52.350;6.684;2023-07-09T15:45:45;27.57;118.99
19340;HTU21D;9804;52.350;6.684;2023-07-09T15:48:41;24.92;118.99
19340;HTU21D;9804;52.350;6.684;2023-07-09T15:51:09;25.54;118.99
19340;HTU21D;9804;52.350;6.684;2023-07-09T15:53:34;25.76;118.99
19340;HTU21D;9804;52.350;6.684;2023-07-09T15:56:03;25.52;118.99
19340;HTU21D;9804;52.350;6.684;2023-07-09T15:58:37;25.62;118.99
19340;HTU21D;9804;52.350;6.684;2023-07-09T16:01:03;25.75;118.99
19340;HTU21D;9804;52.350;6.684;2023-07-09T16:03:30;25.94;118.99
19340;HTU21D;9804;52.350;6.684;2023-07-09T16:05:56;25.18;118.99
19340;HTU21D;9804;52.350;6.684;2023-07-09T16:08:21;25.31;118.99
19340;HTU21D;9804;52.350;6.684;2023-07-09T16:10:46;25.50;118.99
19340;HTU21D;9804;52.350;6.684;2023-07-09T16:13:21;25.43;118.99
19340;HTU21D;9804;52.350;6.684;2023-07-09T16:15:50;25.48;118.99